Weather at Schinousa Heliport

Public forecast

Using degrees Celsius for public forecast. Weather courtesy of forecast.io.

Closest aviation weather report (METAR) to Schinousa Heliport

Report is more than 2 hours old.

Closest report is Naxos Apollon Airport, 14.6 nm (27.0 km) NNW. Retrieved 2021/04/17 09:50 UTC (4 hours ago):

LGNX 170950Z 15015KT 9999 FEW030 20/11 Q1009

Closest aviation forecast (TAF) to Schinousa Heliport

Closest forecast is Santorini Airport, 28.2 nm (52.2 km) S. Retrieved 2021/04/17 12:12 UTC (2 hours ago):

TAF LGSR 171100Z 1712/1812 17025G35KT 9999 FEW020 SCT030 BECMG 1810/1812 VRB05KT